Time;durP1;ratioP1;P1;durP2;ratioP2;P2;SDS_P1;SDS_P2;PMS_P1;PMS_P2;Temp;Humidity;BMP_temperature;BMP_pressure;BME280_temperature;BME280_humidity;BME280_pressure;Samples;Min_cycle;Max_cycle;Signal;HPM_P1;HPM_P2
2023/08/13 00:00:41;;;;;;;9.57;8.52;;;;;;;19.49;84.52;98996.31;5000533;28;20037;-84
2023/08/13 00:03:06;;;;;;;9.90;7.60;;;;;;;19.52;84.82;98998.44;5013983;28;20038;-84
2023/08/13 00:05:32;;;;;;;10.13;6.82;;;;;;;19.48;84.47;98994.72;5028462;28;20029;-84
2023/08/13 00:07:57;;;;;;;8.80;7.90;;;;;;;19.32;84.41;98981.47;5030275;28;20351;-85
2023/08/13 00:10:23;;;;;;;9.05;8.15;;;;;;;19.48;84.69;98994.72;5016386;28;20041;-85
2023/08/13 00:12:48;;;;;;;12.95;8.05;;;;;;;19.34;84.35;98981.16;5016710;28;20048;-84
2023/08/13 00:15:14;;;;;;;9.85;7.95;;;;;;;19.33;84.50;98988.47;5032799;28;20040;-85
2023/08/13 00:17:39;;;;;;;8.30;7.20;;;;;;;19.29;84.57;98982.06;5028205;28;20053;-84
2023/08/13 00:20:05;;;;;;;10.35;7.47;;;;;;;19.36;84.62;98998.75;5026921;28;20474;-85
2023/08/13 00:22:31;;;;;;;10.27;7.30;;;;;;;19.15;84.34;98970.47;5016732;28;20397;-85
2023/08/13 00:25:00;;;;;;;12.07;7.32;;;;;;;19.18;84.45;98986.06;5021586;28;20029;-85
2023/08/13 00:27:25;;;;;;;11.45;8.05;;;;;;;19.12;84.21;98971.06;5029292;28;20116;-85
2023/08/13 00:29:51;;;;;;;8.10;7.30;;;;;;;19.27;84.07;99010.53;4999424;28;20121;-85
2023/08/13 00:32:16;;;;;;;11.15;8.30;;;;;;;19.19;84.24;99011.25;5048599;28;20079;-85
2023/08/13 00:34:41;;;;;;;8.80;7.70;;;;;;;19.21;84.34;99009.84;5016784;28;20489;-85
2023/08/13 00:37:07;;;;;;;14.52;8.65;;;;;;;19.03;83.99;98993.69;5033135;28;20636;-85
2023/08/13 00:39:32;;;;;;;8.52;7.72;;;;;;;19.00;84.11;98997.78;5032972;28;20466;-85
2023/08/13 00:41:58;;;;;;;8.60;7.85;;;;;;;19.05;83.97;99019.34;5032026;28;20075;-85
2023/08/13 00:44:23;;;;;;;7.25;6.53;;;;;;;19.05;84.33;99008.53;5029785;28;20458;-85
2023/08/13 00:46:49;;;;;;;8.75;7.95;;;;;;;18.89;84.11;99012.63;5029774;28;20537;-85
2023/08/13 00:49:15;;;;;;;11.48;7.88;;;;;;;18.98;83.71;99018.16;5026778;28;20050;-85
2023/08/13 00:51:41;;;;;;;9.75;6.90;;;;;;;18.90;83.69;99006.09;5015011;28;20116;-85
2023/08/13 00:54:08;;;;;;;13.20;8.50;;;;;;;18.87;83.70;99014.03;5027290;28;20458;-85
2023/08/13 00:56:34;;;;;;;10.70;7.70;;;;;;;18.79;83.74;99010.09;5021209;28;20030;-85
2023/08/13 00:59:04;;;;;;;8.38;7.57;;;;;;;18.88;83.52;99023.72;5007693;28;20049;-85
2023/08/13 01:01:29;;;;;;;11.13;6.88;;;;;;;18.74;84.00;99020.22;5012524;28;20051;-85
2023/08/13 01:03:55;;;;;;;7.85;6.85;;;;;;;18.74;83.53;99022.91;5032522;28;20033;-85
2023/08/13 01:06:26;;;;;;;7.40;6.40;;;;;;;18.68;83.66;99025.69;5031862;28;20440;-85
2023/08/13 01:09:20;;;;;;;11.52;7.07;;;;;;;18.69;83.82;99029.22;5031345;28;20061;-85
2023/08/13 01:11:55;;;;;;;9.15;6.68;;;;;;;18.54;83.61;99014.03;5032583;28;20036;-85
2023/08/13 01:14:29;;;;;;;12.30;7.00;;;;;;;18.36;83.80;98985.13;5029700;28;20056;-85
2023/08/13 01:16:56;;;;;;;7.25;6.38;;;;;;;18.63;83.54;99025.00;5031447;28;20899;-85
2023/08/13 01:19:22;;;;;;;8.70;5.88;;;;;;;18.58;83.29;99004.25;5032621;28;20421;-85
2023/08/13 01:21:47;;;;;;;9.93;7.22;;;;;;;18.60;83.37;99010.16;5029796;28;20120;-85
2023/08/13 01:24:13;;;;;;;8.63;6.35;;;;;;;18.59;83.41;99021.25;5009758;28;20113;-84
2023/08/13 01:27:06;;;;;;;10.23;6.43;;;;;;;18.53;83.30;99031.34;5028073;28;20064;-84
2023/08/13 01:29:52;;;;;;;8.95;6.60;;;;;;;18.36;83.52;99022.16;5020744;28;20034;-85
2023/08/13 01:32:22;;;;;;;7.13;5.60;;;;;;;18.52;83.37;99032.44;5032299;28;20050;-85
2023/08/13 01:34:51;;;;;;;12.68;6.25;;;;;;;18.47;83.35;99008.22;5013629;28;20405;-85
2023/08/13 01:37:18;;;;;;;10.75;6.30;;;;;;;18.42;82.97;99010.97;5030327;28;20055;-85
2023/08/13 01:39:44;;;;;;;6.85;6.15;;;;;;;18.61;82.34;99025.25;5032110;28;20021;-85
2023/08/13 01:42:11;;;;;;;7.05;5.63;;;;;;;18.53;82.24;99019.72;5014785;28;20493;-85
2023/08/13 01:44:37;;;;;;;8.35;5.90;;;;;;;18.28;82.12;98974.19;5015085;28;20034;-85
2023/08/13 01:47:02;;;;;;;8.18;5.10;;;;;;;18.62;81.91;99024.19;4993154;28;20037;-85
2023/08/13 01:49:27;;;;;;;8.35;6.07;;;;;;;18.52;81.81;99027.03;5030747;28;20045;-85
2023/08/13 01:51:53;;;;;;;7.38;6.68;;;;;;;18.35;82.38;99013.22;4987600;28;20428;-85
2023/08/13 01:54:18;;;;;;;11.02;7.32;;;;;;;18.37;82.25;99016.44;5042288;28;20381;-85
2023/08/13 01:56:43;;;;;;;9.35;7.30;;;;;;;18.48;82.11;99026.03;4998145;28;20029;-85
2023/08/13 01:59:09;;;;;;;7.45;6.63;;;;;;;18.18;82.66;99004.06;5014269;28;20497;-85
2023/08/13 02:01:34;;;;;;;11.35;7.85;;;;;;;18.31;82.28;99028.44;5013615;28;20120;-85
2023/08/13 02:03:59;;;;;;;9.45;7.82;;;;;;;18.31;82.59;99031.13;5012351;28;22172;-85
2023/08/13 02:06:25;;;;;;;14.68;7.95;;;;;;;18.30;81.74;99024.16;5026649;28;20492;-84
2023/08/13 02:08:50;;;;;;;13.07;8.60;;;;;;;17.97;82.20;98987.38;5014236;28;20034;-85
2023/08/13 02:11:15;;;;;;;11.95;8.52;;;;;;;18.14;82.27;99014.66;5014484;28;20037;-85
2023/08/13 02:13:41;;;;;;;14.18;8.25;;;;;;;18.08;82.25;99004.22;5013980;28;20025;-85
2023/08/13 02:16:06;;;;;;;11.23;8.27;;;;;;;18.05;82.43;99008.31;4997056;28;20091;-84
2023/08/13 02:18:32;;;;;;;11.45;7.72;;;;;;;18.21;82.03;99019.69;4992605;28;20036;-85
2023/08/13 02:20:57;;;;;;;11.60;7.40;;;;;;;18.07;81.80;99005.28;5030461;28;20108;-85
2023/08/13 02:23:22;;;;;;;12.30;6.80;;;;;;;17.94;82.55;99015.75;4994630;28;20030;-85
2023/08/13 02:25:49;;;;;;;12.20;7.15;;;;;;;18.00;82.15;99029.19;5029882;28;20431;-85
2023/08/13 02:28:14;;;;;;;9.55;6.05;;;;;;;17.85;82.18;99027.50;5031140;28;20025;-85
2023/08/13 02:30:42;;;;;;;14.30;6.38;;;;;;;17.68;82.26;99016.38;5020926;28;20088;-85
2023/08/13 02:33:08;;;;;;;8.55;5.85;;;;;;;17.73;82.36;99011.75;5030934;28;20060;-85
2023/08/13 02:35:33;;;;;;;7.93;5.10;;;;;;;17.86;81.89;99026.41;5011892;28;20033;-85
2023/08/13 02:37:58;;;;;;;8.40;5.45;;;;;;;17.87;81.45;99036.91;5011856;28;20029;-85
2023/08/13 02:40:24;;;;;;;6.65;5.80;;;;;;;17.77;81.88;99023.56;5013635;28;20091;-84
2023/08/13 02:42:49;;;;;;;6.25;5.60;;;;;;;17.64;81.49;99004.56;4997157;28;20092;-85
2023/08/13 02:45:14;;;;;;;9.07;6.88;;;;;;;17.61;82.20;99022.16;4997246;28;20038;-85
2023/08/13 02:47:40;;;;;;;9.63;6.35;;;;;;;17.63;82.11;99017.25;4996928;28;20040;-85
2023/08/13 02:50:06;;;;;;;18.08;6.25;;;;;;;17.66;81.72;99018.56;5011251;28;20029;-84
2023/08/13 02:52:32;;;;;;;7.78;6.43;;;;;;;17.69;82.04;99032.28;5008864;28;20069;-85
2023/08/13 02:54:57;;;;;;;7.78;5.20;;;;;;;17.57;81.96;99018.41;5027456;28;20033;-84
2023/08/13 02:57:22;;;;;;;7.20;5.28;;;;;;;17.47;82.04;99005.03;5027750;28;20125;-84
2023/08/13 02:59:48;;;;;;;8.07;5.55;;;;;;;17.46;81.89;99025.00;5009505;28;20025;-84
2023/08/13 03:02:15;;;;;;;10.23;4.72;;;;;;;17.40;81.50;99009.97;5025689;28;20033;-85
2023/08/13 03:04:41;;;;;;;7.88;4.97;;;;;;;17.42;81.95;99032.06;5024482;28;20030;-85
2023/08/13 03:07:06;;;;;;;9.38;4.35;;;;;;;17.29;82.21;99008.50;5029035;28;20026;-84
2023/08/13 03:09:31;;;;;;;10.48;5.20;;;;;;;17.21;81.95;99007.22;5026540;28;20026;-84
2023/08/13 03:11:57;;;;;;;9.32;4.60;;;;;;;17.42;81.98;99039.38;5026532;28;20029;-85
2023/08/13 03:14:22;;;;;;;5.88;4.00;;;;;;;17.50;81.48;99036.00;5044988;28;20029;-85
2023/08/13 03:16:48;;;;;;;10.80;4.50;;;;;;;17.40;81.56;99018.06;5026019;28;20037;-85
2023/08/13 03:19:13;;;;;;;9.52;4.55;;;;;;;17.59;81.26;99037.03;4995926;28;20083;-84
2023/08/13 03:21:38;;;;;;;5.20;3.75;;;;;;;17.64;80.79;99028.88;5026792;28;20033;-84
2023/08/13 03:24:04;;;;;;;10.70;4.47;;;;;;;17.57;80.69;99015.72;5042031;28;20036;-84
2023/08/13 03:26:30;;;;;;;14.60;5.00;;;;;;;17.63;81.04;99011.03;4993150;28;20057;-85
2023/08/13 03:28:56;;;;;;;6.82;4.10;;;;;;;17.74;81.05;99034.94;5023528;28;20022;-85
2023/08/13 03:31:21;;;;;;;6.15;4.60;;;;;;;17.60;82.06;99035.94;5025824;28;20132;-85
2023/08/13 03:33:46;;;;;;;8.45;4.85;;;;;;;17.54;82.16;99024.38;5016468;28;20095;-85
2023/08/13 03:36:12;;;;;;;6.32;4.60;;;;;;;17.59;81.87;99027.03;5016543;28;20033;-85
2023/08/13 03:38:37;;;;;;;8.20;4.68;;;;;;;17.59;81.87;99021.63;5034506;28;20531;-84
2023/08/13 03:41:03;;;;;;;7.03;4.53;;;;;;;17.71;81.52;99019.31;5015218;28;20038;-84
2023/08/13 03:43:28;;;;;;;6.80;4.38;;;;;;;17.73;81.14;99022.53;5029161;28;20036;-84
2023/08/13 03:45:53;;;;;;;7.90;4.13;;;;;;;17.80;81.25;99031.06;5044065;28;20096;-85
2023/08/13 03:48:19;;;;;;;6.50;3.90;;;;;;;17.68;81.62;99028.00;5031142;28;20041;-85
2023/08/13 03:50:44;;;;;;;6.60;4.20;;;;;;;17.60;82.06;99028.66;5029529;28;20032;-85
2023/08/13 03:53:10;;;;;;;8.13;4.18;;;;;;;17.60;82.32;99025.94;5012415;28;20032;-86
2023/08/13 03:55:37;;;;;;;6.40;4.13;;;;;;;17.55;82.48;99031.41;5030552;28;20048;-85
2023/08/13 03:58:03;;;;;;;6.88;4.70;;;;;;;17.50;82.94;99036.84;5013916;28;20034;-85
2023/08/13 04:00:29;;;;;;;11.52;5.80;;;;;;;17.59;83.05;99029.72;5041692;28;20025;-85
2023/08/13 04:02:55;;;;;;;5.05;3.90;;;;;;;17.44;82.39;98999.41;5026738;28;20033;-84
2023/08/13 04:05:20;;;;;;;6.50;4.60;;;;;;;17.69;82.50;99037.69;5030566;28;20137;-85
2023/08/13 04:07:46;;;;;;;8.18;4.95;;;;;;;17.64;82.44;99036.97;5029099;28;20397;-84
2023/08/13 04:10:11;;;;;;;6.95;4.68;;;;;;;17.26;82.79;98973.97;5028332;28;20044;-85
2023/08/13 04:12:37;;;;;;;8.25;5.22;;;;;;;17.49;83.19;99019.03;5016243;28;20036;-84
2023/08/13 04:15:03;;;;;;;5.47;4.35;;;;;;;17.41;83.50;99014.25;5031720;28;20044;-85
2023/08/13 04:17:28;;;;;;;7.30;4.75;;;;;;;17.47;83.50;99036.63;5029627;28;20026;-85
2023/08/13 04:19:54;;;;;;;9.20;4.55;;;;;;;17.49;83.62;99010.94;5025977;28;20029;-85
2023/08/13 04:22:19;;;;;;;7.60;4.47;;;;;;;17.68;83.24;99035.28;5014602;28;20052;-84
2023/08/13 04:24:50;;;;;;;9.80;4.75;;;;;;;17.58;82.56;99008.44;5029056;28;20060;-84
2023/08/13 04:27:16;;;;;;;11.30;4.93;;;;;;;17.75;82.51;99038.44;5030527;28;20392;-84
2023/08/13 04:29:42;;;;;;;12.50;5.35;;;;;;;17.73;82.75;99024.44;5014484;28;20640;-84
2023/08/13 04:32:07;;;;;;;6.68;5.18;;;;;;;17.68;83.08;99036.09;4999919;28;20029;-84
2023/08/13 04:34:32;;;;;;;4.72;4.30;;;;;;;17.54;84.26;99040.59;5013139;28;20036;-84
2023/08/13 04:36:58;;;;;;;6.82;4.95;;;;;;;17.49;84.24;99035.25;5026965;28;20087;-84
2023/08/13 04:39:23;;;;;;;6.13;4.53;;;;;;;17.45;84.36;99033.41;5032828;28;20030;-85
2023/08/13 04:41:49;;;;;;;7.53;4.20;;;;;;;17.52;84.33;99040.06;5031915;28;20041;-85
2023/08/13 04:44:14;;;;;;;8.32;5.43;;;;;;;17.60;84.41;99044.84;5033154;28;20041;-85
2023/08/13 04:46:40;;;;;;;7.38;4.50;;;;;;;17.45;84.23;99015.28;5045200;28;20087;-84
2023/08/13 04:49:05;;;;;;;5.05;4.55;;;;;;;17.63;83.90;99033.47;5015538;28;20047;-84
2023/08/13 04:51:30;;;;;;;7.85;4.75;;;;;;;17.67;84.19;99042.56;5032228;28;20057;-85
2023/08/13 04:53:56;;;;;;;9.02;4.05;;;;;;;17.67;83.97;99039.09;5024273;28;20041;-85
2023/08/13 04:56:21;;;;;;;4.85;4.28;;;;;;;17.67;84.37;99037.19;5030056;28;20477;-85
2023/08/13 04:58:46;;;;;;;6.18;3.88;;;;;;;17.71;84.05;99040.91;5011446;28;20040;-85
2023/08/13 05:01:12;;;;;;;6.85;4.28;;;;;;;17.67;84.01;99031.00;5043207;28;20037;-85
2023/08/13 05:03:38;;;;;;;7.25;4.72;;;;;;;17.82;83.88;99042.38;5029664;28;20033;-85
2023/08/13 05:06:03;;;;;;;7.95;4.50;;;;;;;17.90;84.00;99041.75;5033426;28;20029;-85
2023/08/13 05:08:29;;;;;;;7.78;4.13;;;;;;;17.86;83.67;99046.13;5029232;28;20037;-85
2023/08/13 05:10:54;;;;;;;6.03;3.95;;;;;;;17.77;83.97;99020.84;5012392;28;20021;-85
2023/08/13 05:13:20;;;;;;;5.50;3.70;;;;;;;17.84;83.73;99026.69;5015238;28;21843;-85
2023/08/13 05:15:45;;;;;;;5.90;4.15;;;;;;;17.95;83.88;99044.34;5030060;28;20095;-85
2023/08/13 05:18:10;;;;;;;4.70;3.65;;;;;;;17.85;83.75;99019.38;5030617;28;20033;-85
2023/08/13 05:20:36;;;;;;;6.30;3.78;;;;;;;17.95;84.08;99054.38;5029006;28;20030;-85
2023/08/13 05:23:01;;;;;;;3.92;3.50;;;;;;;17.91;84.27;99045.22;5030641;28;20079;-85
2023/08/13 05:25:28;;;;;;;6.78;3.28;;;;;;;17.91;84.74;99054.13;5024333;28;20171;-85
2023/08/13 05:27:53;;;;;;;5.43;3.58;;;;;;;17.93;84.42;99041.16;5044760;28;20037;-83
2023/08/13 05:30:19;;;;;;;6.57;3.65;;;;;;;17.84;84.32;99026.69;4998485;28;20032;-85
2023/08/13 05:32:46;;;;;;;6.38;3.67;;;;;;;17.75;85.47;99044.66;5010388;28;20032;-85
2023/08/13 05:35:11;;;;;;;6.00;3.45;;;;;;;17.92;84.72;99057.66;5042548;28;20539;-84
2023/08/13 05:37:37;;;;;;;7.03;3.80;;;;;;;17.95;84.57;99051.69;5027630;28;20037;-84
2023/08/13 05:40:02;;;;;;;5.05;3.38;;;;;;;17.77;84.91;99042.47;4992544;28;20026;-84
2023/08/13 05:42:28;;;;;;;7.13;3.58;;;;;;;17.83;85.37;99044.00;5024718;28;20036;-84
2023/08/13 05:44:53;;;;;;;7.15;4.53;;;;;;;17.96;84.87;99045.16;5027043;28;20025;-85
2023/08/13 05:47:18;;;;;;;8.80;3.47;;;;;;;18.06;84.40;99053.16;5008880;28;20076;-86
2023/08/13 05:49:44;;;;;;;4.05;3.70;;;;;;;18.02;84.93;99057.50;5027963;28;20058;-86
2023/08/13 05:52:09;;;;;;;4.78;3.40;;;;;;;18.01;84.92;99038.88;5028251;28;20030;-85
2023/08/13 05:54:34;;;;;;;6.38;2.80;;;;;;;18.09;84.74;99052.53;5026910;28;20031;-85
2023/08/13 05:57:00;;;;;;;4.68;3.55;;;;;;;17.94;85.80;99053.56;5011587;28;20068;-85
2023/08/13 05:59:25;;;;;;;3.53;3.22;;;;;;;17.96;85.26;99043.28;5009366;28;20036;-84
2023/08/13 06:01:51;;;;;;;4.57;4.07;;;;;;;17.84;84.87;99021.28;5011135;28;20061;-85
2023/08/13 06:04:16;;;;;;;5.30;4.18;;;;;;;17.95;85.19;99044.34;4994079;28;20040;-86
2023/08/13 06:06:41;;;;;;;5.82;3.53;;;;;;;17.95;85.32;99040.88;4995559;28;20114;-86
2023/08/13 06:09:07;;;;;;;7.55;4.35;;;;;;;18.02;85.46;99041.28;5024520;28;20489;-85
2023/08/13 06:11:32;;;;;;;7.18;4.18;;;;;;;17.95;85.89;99038.94;5014086;28;20025;-86
2023/08/13 06:13:58;;;;;;;4.50;3.58;;;;;;;18.01;85.97;99042.41;5023589;28;20077;-85
2023/08/13 06:16:23;;;;;;;4.22;3.85;;;;;;;18.14;84.94;99057.06;5025600;28;20551;-85
2023/08/13 06:18:48;;;;;;;5.65;3.85;;;;;;;18.16;85.11;99054.88;5025719;28;20124;-85
2023/08/13 06:21:14;;;;;;;3.95;3.38;;;;;;;18.16;85.13;99052.19;5025484;28;20030;-85
2023/08/13 06:23:39;;;;;;;7.50;3.13;;;;;;;18.21;84.79;99062.91;5010946;28;20512;-85
2023/08/13 06:26:06;;;;;;;4.85;3.03;;;;;;;18.28;84.23;99068.78;5022346;28;20080;-85
2023/08/13 06:28:32;;;;;;;4.63;3.67;;;;;;;17.99;88.54;99050.00;5026746;28;20033;-85
2023/08/13 06:30:57;;;;;;;5.72;3.85;;;;;;;18.19;85.18;99048.91;4996839;28;20374;-85
2023/08/13 06:33:23;;;;;;;3.70;3.40;;;;;;;18.38;84.08;99068.59;5030077;28;20029;-85
2023/08/13 06:35:48;;;;;;;6.32;3.30;;;;;;;18.15;84.10;99027.06;4998004;28;20120;-85
2023/08/13 06:38:14;;;;;;;5.25;3.70;;;;;;;18.38;85.33;99057.78;5014123;28;20038;-85
2023/08/13 06:40:40;;;;;;;3.10;2.85;;;;;;;18.43;85.17;99069.34;5027658;28;20029;-85
2023/08/13 06:43:05;;;;;;;5.75;3.33;;;;;;;18.57;83.66;99066.69;4992513;28;20037;-85
2023/08/13 06:45:31;;;;;;;6.35;3.38;;;;;;;18.49;83.85;99048.47;5029973;28;20033;-85
2023/08/13 06:47:57;;;;;;;5.43;2.83;;;;;;;18.71;83.44;99078.38;5011095;28;20040;-84
2023/08/13 06:50:22;;;;;;;5.03;2.85;;;;;;;18.72;82.87;99069.16;5031246;28;20029;-84
2023/08/13 06:52:48;;;;;;;3.70;3.40;;;;;;;18.66;82.94;99059.53;5025313;28;20389;-84
2023/08/13 06:55:13;;;;;;;5.07;3.30;;;;;;;18.68;83.38;99068.16;5012443;28;20127;-85
2023/08/13 06:57:38;;;;;;;8.13;3.35;;;;;;;18.66;82.95;99049.53;5009114;28;20037;-85
2023/08/13 07:00:05;;;;;;;4.50;3.08;;;;;;;18.85;82.58;99056.78;5022277;28;20473;-85
2023/08/13 07:02:31;;;;;;;6.13;3.50;;;;;;;18.76;82.88;99058.56;5013889;28;20068;-85
2023/08/13 07:04:56;;;;;;;5.57;3.30;;;;;;;18.54;83.70;99021.34;4999177;28;20061;-85
2023/08/13 07:07:21;;;;;;;6.22;4.30;;;;;;;18.73;87.07;99049.13;5030934;28;20025;-85
2023/08/13 07:09:48;;;;;;;12.32;5.03;;;;;;;18.74;88.75;99064.25;5008528;28;20038;-84
2023/08/13 07:12:13;;;;;;;4.25;3.53;;;;;;;18.92;86.67;99068.81;5000706;28;20037;-85
2023/08/13 07:14:39;;;;;;;5.63;2.85;;;;;;;19.07;85.45;99071.25;5017286;28;20053;-85
2023/08/13 07:17:04;;;;;;;5.63;5.00;;;;;;;19.07;88.42;99063.13;5015623;28;20499;-85
2023/08/13 07:19:32;;;;;;;7.97;2.90;;;;;;;19.16;85.50;99064.06;5028815;28;21746;-85
2023/08/13 07:21:57;;;;;;;4.72;3.40;;;;;;;19.17;85.51;99065.69;5015642;28;20117;-84
2023/08/13 07:24:23;;;;;;;6.50;4.95;;;;;;;19.13;88.41;99059.22;5000017;28;20471;-85
2023/08/13 07:26:48;;;;;;;5.20;4.03;;;;;;;19.25;86.59;99067.69;5025691;28;20052;-86
2023/08/13 07:29:14;;;;;;;4.95;3.22;;;;;;;19.22;85.24;99053.97;5015942;28;20083;-85
2023/08/13 07:31:39;;;;;;;5.03;2.90;;;;;;;19.38;84.44;99066.09;5013330;28;20060;-85
2023/08/13 07:34:05;;;;;;;5.78;3.10;;;;;;;19.52;84.14;99076.94;5029156;28;20428;-86
2023/08/13 07:36:31;;;;;;;8.52;3.60;;;;;;;19.31;83.90;99066.47;5031222;28;20040;-85
2023/08/13 07:38:57;;;;;;;7.55;4.15;;;;;;;19.29;83.14;99060.56;4999318;28;20026;-85
2023/08/13 07:41:22;;;;;;;7.28;3.90;;;;;;;19.40;83.23;99075.53;4999508;28;20396;-85
2023/08/13 07:43:48;;;;;;;4.53;3.72;;;;;;;19.40;82.67;99078.25;5027507;28;20028;-84
2023/08/13 07:46:13;;;;;;;4.03;3.35;;;;;;;19.40;83.37;99083.66;5012264;28;20075;-84
2023/08/13 07:48:39;;;;;;;4.78;3.80;;;;;;;19.14;83.35;99039.19;5025014;28;20287;-84
2023/08/13 07:51:04;;;;;;;3.70;3.20;;;;;;;19.36;83.91;99062.91;5030842;28;20017;-84
2023/08/13 07:53:31;;;;;;;5.75;3.03;;;;;;;19.44;84.48;99071.13;5032476;28;20033;-83
2023/08/13 07:55:57;;;;;;;8.95;4.20;;;;;;;19.52;84.01;99069.63;5011685;28;20057;-83
2023/08/13 07:58:22;;;;;;;4.93;3.03;;;;;;;19.58;83.21;99054.06;5031919;28;20072;-83
2023/08/13 08:00:48;;;;;;;8.13;3.33;;;;;;;19.71;83.02;99064.91;5030622;28;20055;-83
2023/08/13 08:03:13;;;;;;;6.25;3.28;;;;;;;19.66;84.51;99051.47;5009911;28;20042;-83
2023/08/13 08:05:40;;;;;;;6.28;4.03;;;;;;;19.76;84.65;99064.81;4998479;28;20037;-84
2023/08/13 08:08:06;;;;;;;16.38;3.92;;;;;;;19.85;83.03;99062.19;5011174;28;20045;-84
2023/08/13 08:10:34;;;;;;;3.35;2.90;;;;;;;19.79;83.30;99061.47;5014671;28;20078;-83
2023/08/13 08:13:00;;;;;;;11.25;3.38;;;;;;;19.75;82.61;99036.09;5041484;28;20060;-84
2023/08/13 08:15:25;;;;;;;5.88;2.80;;;;;;;19.97;82.41;99067.88;4997966;28;20103;-84
2023/08/13 08:17:51;;;;;;;4.20;2.88;;;;;;;19.87;82.62;99047.22;5030672;28;20505;-84
2023/08/13 08:20:16;;;;;;;3.65;2.95;;;;;;;19.86;82.48;99050.22;5042307;28;20033;-84
2023/08/13 08:22:42;;;;;;;6.45;3.50;;;;;;;19.76;84.59;99042.31;5031961;28;20088;-84
2023/08/13 08:25:11;;;;;;;6.13;3.53;;;;;;;20.06;81.99;99061.44;5014024;28;20083;-83
2023/08/13 08:27:37;;;;;;;3.25;2.70;;;;;;;19.98;81.25;99026.94;5028686;28;20057;-84
2023/08/13 08:30:03;;;;;;;4.50;3.22;;;;;;;20.09;83.24;99049.19;5031832;28;20051;-83
2023/08/13 08:32:30;;;;;;;3.78;2.50;;;;;;;20.14;81.51;99058.00;5032543;28;20026;-84
2023/08/13 08:34:56;;;;;;;5.60;4.05;;;;;;;19.98;87.34;99050.53;5028275;28;20021;-84
2023/08/13 08:37:21;;;;;;;6.72;4.50;;;;;;;20.05;84.42;99059.81;5014292;28;20034;-84
2023/08/13 08:39:47;;;;;;;5.20;3.42;;;;;;;19.62;84.93;98960.28;5029903;28;20125;-84
2023/08/13 08:42:12;;;;;;;5.85;3.00;;;;;;;20.40;82.63;99054.75;5026141;28;20033;-84
2023/08/13 08:44:42;;;;;;;3.78;3.17;;;;;;;20.23;82.53;99020.16;5013003;28;20045;-84
2023/08/13 08:47:09;;;;;;;4.13;2.75;;;;;;;20.72;81.16;99052.59;5033230;28;20104;-84
2023/08/13 08:49:35;;;;;;;3.47;2.72;;;;;;;20.75;82.84;99051.19;5040638;28;20393;-84
2023/08/13 08:52:01;;;;;;;4.00;2.67;;;;;;;20.80;81.55;99053.75;5029899;28;20599;-84
2023/08/13 08:54:27;;;;;;;3.30;3.00;;;;;;;20.96;80.50;99054.16;5029784;28;20040;-83
2023/08/13 08:56:53;;;;;;;6.03;3.47;;;;;;;20.81;83.16;99060.78;5029930;28;20031;-84
2023/08/13 08:59:19;;;;;;;5.03;2.90;;;;;;;20.93;81.43;99036.56;5028084;28;20060;-84
2023/08/13 09:01:45;;;;;;;4.65;3.05;;;;;;;21.07;81.95;99040.03;5028715;28;20041;-83
2023/08/13 09:04:10;;;;;;;5.07;2.70;;;;;;;21.19;79.29;99042.16;5012531;28;20041;-83
2023/08/13 09:06:56;;;;;;;6.43;2.63;;;;;;;21.23;79.12;99043.94;5027875;28;20091;-83
2023/08/13 09:09:23;;;;;;;5.32;3.58;;;;;;;21.16;79.86;99031.94;5021209;28;20030;-83
2023/08/13 09:11:49;;;;;;;3.50;2.60;;;;;;;21.35;81.06;99049.59;5029430;28;20033;-84
2023/08/13 09:14:14;;;;;;;3.70;2.88;;;;;;;21.27;79.68;99019.69;5027662;28;20038;-83
2023/08/13 09:16:44;;;;;;;4.68;2.78;;;;;;;21.41;78.89;99020.34;5029391;28;20030;-84
2023/08/13 09:19:10;;;;;;;3.30;2.83;;;;;;;21.63;78.56;99033.84;5023306;28;20496;-83
2023/08/13 09:21:35;;;;;;;4.07;2.88;;;;;;;21.63;79.31;99022.97;5025364;28;20080;-83
2023/08/13 09:24:01;;;;;;;7.28;2.85;;;;;;;21.67;77.90;99018.50;5030478;28;20380;-83
2023/08/13 09:26:27;;;;;;;6.32;3.03;;;;;;;21.80;78.34;99028.44;5026870;28;20044;-83
2023/08/13 09:28:52;;;;;;;6.35;2.45;;;;;;;21.89;76.87;99023.88;5026379;28;20030;-83
2023/08/13 09:31:18;;;;;;;3.38;2.55;;;;;;;21.92;76.69;99017.81;5030275;28;20037;-83
2023/08/13 09:33:45;;;;;;;3.72;2.60;;;;;;;21.91;77.60;99012.69;5029780;28;20112;-83
2023/08/13 09:36:11;;;;;;;4.60;2.40;;;;;;;22.04;76.43;99028.84;5030325;28;20033;-83
2023/08/13 09:38:36;;;;;;;8.18;3.00;;;;;;;22.04;77.49;99023.41;5013207;28;20385;-83
2023/08/13 09:41:04;;;;;;;3.85;2.60;;;;;;;22.20;75.41;99023.72;5028982;28;20026;-83
2023/08/13 09:43:31;;;;;;;3.90;2.42;;;;;;;22.25;75.40;99020.84;5025868;28;20044;-84
2023/08/13 09:46:00;;;;;;;3.05;2.63;;;;;;;22.37;75.35;99027.25;5036015;28;20064;-83
2023/08/13 09:48:26;;;;;;;4.85;2.72;;;;;;;22.46;74.29;99026.44;5028234;28;20034;-83
2023/08/13 09:50:55;;;;;;;4.90;2.78;;;;;;;22.47;73.97;99023.41;5029502;28;20104;-83
2023/08/13 09:53:22;;;;;;;5.88;2.65;;;;;;;22.36;73.78;99017.50;5029110;28;20053;-84
2023/08/13 09:55:52;;;;;;;5.97;2.60;;;;;;;22.40;74.65;99014.94;5026766;28;20094;-83
2023/08/13 09:58:19;;;;;;;5.50;2.47;;;;;;;22.52;73.60;99011.56;5030200;28;20052;-83
2023/08/13 10:00:45;;;;;;;2.92;1.90;;;;;;;22.49;73.63;99006.75;5027978;28;20358;-83
2023/08/13 10:03:12;;;;;;;5.82;2.55;;;;;;;22.59;74.61;99003.69;5022979;28;20045;-83
2023/08/13 10:05:38;;;;;;;4.43;2.53;;;;;;;22.65;71.94;99005.94;5030820;28;20485;-84
2023/08/13 10:08:06;;;;;;;5.50;2.58;;;;;;;22.81;72.09;98995.34;5004108;28;20555;-84
2023/08/13 10:10:31;;;;;;;5.32;2.33;;;;;;;22.36;72.91;98982.13;5029721;28;20037;-84
2023/08/13 10:12:57;;;;;;;5.85;2.83;;;;;;;22.28;72.71;98993.81;5032515;28;20025;-85
2023/08/13 10:15:23;;;;;;;4.40;2.72;;;;;;;22.28;73.23;98996.53;5021260;28;20377;-84
2023/08/13 10:17:49;;;;;;;3.42;2.40;;;;;;;22.42;74.98;99001.81;5008779;28;20101;-85
2023/08/13 10:20:17;;;;;;;4.00;2.63;;;;;;;22.30;72.17;98964.38;5012807;28;20041;-84
2023/08/13 10:22:44;;;;;;;3.53;2.60;;;;;;;22.45;71.88;99003.88;5015951;28;20457;-84
2023/08/13 10:25:26;;;;;;;3.95;2.75;;;;;;;22.34;71.46;98994.47;5021378;28;20041;-85
2023/08/13 10:27:54;;;;;;;6.45;2.78;;;;;;;22.27;70.92;98984.06;5028797;28;20037;-85
2023/08/13 10:30:19;;;;;;;4.38;2.30;;;;;;;22.49;71.63;98999.41;5042974;28;20041;-84
2023/08/13 10:32:54;;;;;;;5.65;2.35;;;;;;;22.46;70.11;98983.72;5030805;28;20021;-84
2023/08/13 10:35:34;;;;;;;4.97;2.70;;;;;;;22.49;69.97;98985.00;5030844;28;20072;-84
2023/08/13 10:38:02;;;;;;;7.82;2.58;;;;;;;22.53;70.22;98996.81;5008060;28;20041;-84
2023/08/13 10:40:27;;;;;;;4.40;2.65;;;;;;;22.39;70.14;98975.22;5009639;28;20508;-84
2023/08/13 10:42:55;;;;;;;7.97;2.85;;;;;;;22.64;71.54;98985.31;5024229;28;20141;-85
2023/08/13 10:45:24;;;;;;;2.97;2.50;;;;;;;22.78;69.75;98982.41;5010782;28;20064;-85
2023/08/13 10:47:54;;;;;;;10.75;3.15;;;;;;;22.86;69.36;98981.56;5024866;28;20469;-85
2023/08/13 10:50:23;;;;;;;8.07;2.97;;;;;;;22.59;69.24;98982.75;5030217;28;20034;-85
2023/08/13 10:53:10;;;;;;;5.35;2.42;;;;;;;22.86;69.00;98984.28;5030243;28;20015;-85
2023/08/13 10:55:48;;;;;;;5.63;3.25;;;;;;;23.34;69.36;98983.94;5011709;28;20037;-85
2023/08/13 10:58:27;;;;;;;11.05;3.30;;;;;;;23.07;68.28;98975.06;5023519;28;20776;-85
2023/08/13 11:01:12;;;;;;;3.22;2.72;;;;;;;23.31;70.30;98979.91;5010476;28;20060;-85
2023/08/13 11:03:46;;;;;;;9.70;3.05;;;;;;;23.23;68.57;98961.72;5034095;28;20140;-86
2023/08/13 11:06:13;;;;;;;9.73;2.78;;;;;;;23.23;70.21;98979.97;4994509;28;20117;-86
2023/08/13 11:08:42;;;;;;;3.88;2.13;;;;;;;23.49;67.43;98981.47;5008433;28;20030;-86
2023/08/13 11:11:09;;;;;;;8.60;2.80;;;;;;;23.48;67.39;98966.22;5013849;28;20381;-86
2023/08/13 11:13:35;;;;;;;4.65;2.50;;;;;;;23.70;67.77;98979.56;5004657;28;20026;-86
2023/08/13 11:16:01;;;;;;;3.22;2.08;;;;;;;23.86;67.83;98982.50;5029997;28;20026;-85
2023/08/13 11:18:26;;;;;;;8.25;3.05;;;;;;;23.88;66.79;98966.59;5026865;28;20025;-85
2023/08/13 11:20:52;;;;;;;26.17;6.90;;;;;;;24.03;65.54;98970.66;5009541;28;20029;-85
2023/08/13 11:23:20;;;;;;;19.42;5.43;;;;;;;23.72;65.48;98952.00;5026439;28;20570;-85
2023/08/13 11:25:48;;;;;;;8.85;3.10;;;;;;;23.83;66.64;98973.06;5013561;28;20044;-85
2023/08/13 11:28:25;;;;;;;32.63;8.13;;;;;;;24.16;65.64;98955.97;5028742;28;20041;-85